createdAt,value
2018-11-29T00:00:45.025Z,3.62
2018-11-29T00:02:57.269Z,3.59
2018-11-29T00:05:09.486Z,3.59
2018-11-29T00:07:21.701Z,3.59
2018-11-29T00:09:37.849Z,3.65
2018-11-29T00:11:50.012Z,3.65
2018-11-29T00:14:02.377Z,3.63
2018-11-29T00:16:14.603Z,3.62
2018-11-29T00:18:26.798Z,3.58
2018-11-29T00:20:38.962Z,3.65
2018-11-29T00:22:51.311Z,3.68
2018-11-29T00:25:03.899Z,3.65
2018-11-29T00:27:16.156Z,3.67
2018-11-29T00:29:28.364Z,3.59
2018-11-29T00:31:40.551Z,3.62
2018-11-29T00:33:52.710Z,3.62
2018-11-29T00:36:04.996Z,3.67
2018-11-29T00:38:17.159Z,3.63
2018-11-29T00:40:29.359Z,3.59
2018-11-29T00:42:41.561Z,3.69
2018-11-29T00:44:53.752Z,3.66
2018-11-29T00:47:05.958Z,3.63
2018-11-29T00:49:18.147Z,3.63
2018-11-29T00:51:30.396Z,3.64
2018-11-29T00:53:42.565Z,3.63
2018-11-29T00:55:54.759Z,3.65
2018-11-29T00:58:06.932Z,3.72
2018-11-29T01:00:21.030Z,3.74
2018-11-29T01:02:33.218Z,3.79
2018-11-29T01:04:45.401Z,3.74
2018-11-29T01:06:57.600Z,3.76
2018-11-29T01:09:09.844Z,3.67
2018-11-29T01:11:22.109Z,3.69
2018-11-29T01:13:34.320Z,3.69
2018-11-29T01:15:46.517Z,3.70
2018-11-29T01:17:58.714Z,3.68
2018-11-29T01:20:12.962Z,3.67
2018-11-29T01:22:25.185Z,3.70
2018-11-29T01:24:37.398Z,3.63
2018-11-29T01:26:49.594Z,3.60
2018-11-29T01:29:01.849Z,3.60
2018-11-29T01:31:14.039Z,3.63
2018-11-29T01:33:26.213Z,3.71
2018-11-29T01:35:38.396Z,3.74
2018-11-29T01:37:50.626Z,3.74
2018-11-29T01:40:02.898Z,3.83
2018-11-29T01:42:15.077Z,3.81
2018-11-29T01:44:27.274Z,3.88
2018-11-29T01:46:39.479Z,3.88
2018-11-29T01:48:51.693Z,3.90
2018-11-29T01:51:04.116Z,3.90
2018-11-29T01:53:16.312Z,3.93
2018-11-29T01:55:28.506Z,3.97
2018-11-29T01:57:40.763Z,3.93
2018-11-29T01:59:52.995Z,3.92
2018-11-29T02:02:05.481Z,3.87
2018-11-29T02:04:17.721Z,3.89
2018-11-29T02:06:29.930Z,3.78
2018-11-29T02:08:42.122Z,3.77
2018-11-29T02:10:54.421Z,3.84
2018-11-29T02:13:06.738Z,3.90
2018-11-29T02:15:18.929Z,3.74
2018-11-29T02:17:31.152Z,3.70
2018-11-29T02:19:43.308Z,3.68
2018-11-29T02:21:55.509Z,3.72
2018-11-29T02:24:07.674Z,3.73
2018-11-29T02:26:19.932Z,3.81
2018-11-29T02:28:32.196Z,3.76
2018-11-29T02:30:44.364Z,3.78
2018-11-29T02:32:56.540Z,3.82
2018-11-29T02:35:08.729Z,3.82
2018-11-29T02:37:20.890Z,3.82
2018-11-29T02:39:33.193Z,3.87
2018-11-29T02:41:45.387Z,3.82
2018-11-29T02:43:57.562Z,3.81
2018-11-29T02:46:09.761Z,3.82
2018-11-29T02:48:21.923Z,3.81
2018-11-29T02:50:34.097Z,3.74
2018-11-29T02:52:46.279Z,3.76
2018-11-29T02:54:58.444Z,3.71
2018-11-29T02:57:10.630Z,3.66
2018-11-29T02:59:22.780Z,3.65
2018-11-29T03:01:35.008Z,3.66
2018-11-29T03:03:47.208Z,3.56
2018-11-29T03:05:59.441Z,3.55
2018-11-29T03:08:11.618Z,3.62
2018-11-29T03:10:25.546Z,3.69
2018-11-29T03:12:37.772Z,3.64
2018-11-29T03:14:49.965Z,3.62
2018-11-29T03:17:02.194Z,3.56
2018-11-29T03:19:14.362Z,3.53
2018-11-29T03:21:26.532Z,3.57
2018-11-29T03:23:38.701Z,3.56
2018-11-29T03:25:50.900Z,3.55
2018-11-29T03:28:03.115Z,3.50
2018-11-29T03:30:16.444Z,3.50
2018-11-29T03:32:28.627Z,3.56
2018-11-29T03:34:40.796Z,3.55
2018-11-29T03:36:52.995Z,3.64
2018-11-29T03:39:06.561Z,3.59
2018-11-29T03:41:18.736Z,3.55
2018-11-29T03:43:30.936Z,3.55
2018-11-29T03:45:43.220Z,3.58
2018-11-29T03:47:55.453Z,3.58
2018-11-29T03:50:10.229Z,3.59
2018-11-29T03:52:22.437Z,3.59
2018-11-29T03:54:34.633Z,3.66
2018-11-29T03:56:46.789Z,3.68
2018-11-29T03:58:58.937Z,3.73
2018-11-29T04:01:11.106Z,3.72
2018-11-29T04:03:23.307Z,3.74
2018-11-29T04:05:35.495Z,3.73
2018-11-29T04:07:47.684Z,3.71
2018-11-29T04:09:59.876Z,3.79
2018-11-29T04:12:12.040Z,3.78
2018-11-29T04:14:24.253Z,3.77
2018-11-29T04:16:36.438Z,3.79
2018-11-29T04:18:49.146Z,3.77
2018-11-29T04:21:00.821Z,3.79
2018-11-29T04:23:12.994Z,3.70
2018-11-29T04:25:25.193Z,3.68
2018-11-29T04:27:37.378Z,3.72
2018-11-29T04:29:49.540Z,3.66
2018-11-29T04:32:01.733Z,3.74
2018-11-29T04:34:13.933Z,3.77
2018-11-29T04:36:26.149Z,3.80
2018-11-29T04:38:38.601Z,3.77
2018-11-29T04:40:50.845Z,3.71
2018-11-29T04:43:03.041Z,3.70
2018-11-29T04:45:16.279Z,3.73
2018-11-29T04:47:28.465Z,3.79
2018-11-29T04:49:40.643Z,3.78
2018-11-29T04:51:52.842Z,3.75
2018-11-29T04:54:05.936Z,3.69
2018-11-29T04:56:18.088Z,3.65
2018-11-29T04:58:30.297Z,3.68
2018-11-29T05:00:42.516Z,3.73
2018-11-29T05:02:54.726Z,3.70
2018-11-29T05:05:07.582Z,3.63
2018-11-29T05:07:19.763Z,3.63
2018-11-29T05:09:31.988Z,3.60
2018-11-29T05:11:44.162Z,3.64
2018-11-29T05:13:56.356Z,3.68
2018-11-29T05:16:08.591Z,3.67
2018-11-29T05:18:20.777Z,3.70
2018-11-29T05:20:32.946Z,3.72
2018-11-29T05:22:45.150Z,3.71
2018-11-29T05:24:57.390Z,3.68
2018-11-29T05:27:09.671Z,3.67
2018-11-29T05:29:21.863Z,3.71
2018-11-29T05:31:34.062Z,3.70
2018-11-29T05:33:46.265Z,3.68
2018-11-29T05:35:58.488Z,3.64
2018-11-29T05:38:10.633Z,3.55
2018-11-29T05:40:22.828Z,3.56
2018-11-29T05:42:35.019Z,3.60
2018-11-29T05:44:47.256Z,3.68
2018-11-29T05:46:59.472Z,3.68
2018-11-29T05:49:11.645Z,3.73
2018-11-29T05:51:23.892Z,3.65
2018-11-29T05:53:36.129Z,3.66
2018-11-29T05:55:48.356Z,3.55
2018-11-29T05:58:00.560Z,3.41
2018-11-29T06:00:13.664Z,3.28
2018-11-29T06:02:25.835Z,3.18
2018-11-29T06:04:38.033Z,3.12
2018-11-29T06:06:50.220Z,3.04
2018-11-29T06:09:02.625Z,3.01
2018-11-29T06:11:14.836Z,2.92
2018-11-29T06:13:27.065Z,2.89
2018-11-29T06:15:39.244Z,2.86
2018-11-29T06:17:51.433Z,2.87
2018-11-29T06:20:03.985Z,2.92
2018-11-29T06:22:16.171Z,2.94
2018-11-29T06:24:28.331Z,2.97
2018-11-29T06:26:40.493Z,2.98
2018-11-29T06:28:52.769Z,3.00
2018-11-29T06:31:05.380Z,3.00
2018-11-29T06:33:17.560Z,3.01
2018-11-29T06:35:29.729Z,2.98
2018-11-29T06:37:41.933Z,2.99
2018-11-29T06:39:54.147Z,2.90
2018-11-29T06:42:10.223Z,2.92
2018-11-29T06:44:22.510Z,2.96
2018-11-29T06:46:34.760Z,3.04
2018-11-29T06:48:46.920Z,3.12
2018-11-29T06:51:00.478Z,3.23
2018-11-29T06:53:18.512Z,3.29
2018-11-29T06:55:30.739Z,3.30
2018-11-29T06:57:42.966Z,3.32
2018-11-29T06:59:55.126Z,3.27
2018-11-29T07:02:07.430Z,3.20
2018-11-29T07:04:19.729Z,3.00
2018-11-29T07:06:31.962Z,2.82
2018-11-29T07:08:44.174Z,2.70
2018-11-29T07:10:56.353Z,2.64
2018-11-29T07:13:08.533Z,2.66
2018-11-29T07:15:20.804Z,2.76
2018-11-29T07:17:33.005Z,2.83
2018-11-29T07:19:45.208Z,3.01
2018-11-29T07:21:57.422Z,3.17
2018-11-29T07:24:09.689Z,3.31
2018-11-29T07:26:21.857Z,3.44
2018-11-29T07:28:34.116Z,3.57
2018-11-29T07:30:46.312Z,3.64
2018-11-29T07:32:58.532Z,3.68
2018-11-29T07:35:11.869Z,3.73
2018-11-29T07:37:24.084Z,3.81
2018-11-29T07:39:36.309Z,3.88
2018-11-29T07:41:48.644Z,3.91
2018-11-29T07:44:00.824Z,3.90
2018-11-29T07:46:13.021Z,3.86
2018-11-29T07:48:25.180Z,3.95
2018-11-29T07:50:37.367Z,4.02
2018-11-29T07:52:49.593Z,4.13
2018-11-29T07:55:01.765Z,4.17
2018-11-29T07:57:13.969Z,4.25
2018-11-29T07:59:26.136Z,4.29
2018-11-29T08:01:38.329Z,4.27
2018-11-29T08:03:50.615Z,4.36
2018-11-29T08:06:02.798Z,4.52
2018-11-29T08:08:14.981Z,4.80
2018-11-29T08:10:27.137Z,5.11
2018-11-29T08:12:39.384Z,5.36
2018-11-29T08:14:51.610Z,5.55
2018-11-29T08:17:03.817Z,5.69
2018-11-29T08:19:16.011Z,5.79
2018-11-29T08:21:28.225Z,6.00
2018-11-29T08:23:40.461Z,6.14
2018-11-29T08:25:52.657Z,6.09
2018-11-29T08:28:04.854Z,6.16
2018-11-29T08:30:17.048Z,6.28
2018-11-29T08:32:29.282Z,6.46
2018-11-29T08:34:41.432Z,6.55
2018-11-29T08:36:53.648Z,6.45
2018-11-29T08:39:08.374Z,6.52
2018-11-29T08:41:20.537Z,6.63
2018-11-29T08:43:32.776Z,6.61
2018-11-29T08:45:44.945Z,6.55
2018-11-29T08:47:57.135Z,6.75
2018-11-29T08:50:12.285Z,6.89
2018-11-29T08:52:24.545Z,6.87
2018-11-29T08:54:36.735Z,6.79
2018-11-29T08:56:48.897Z,6.91
2018-11-29T08:59:01.063Z,6.94
2018-11-29T09:01:13.225Z,7.02
2018-11-29T09:03:25.410Z,7.00
2018-11-29T09:05:37.609Z,7.03
2018-11-29T09:07:49.838Z,6.91
2018-11-29T09:10:02.044Z,6.80
2018-11-29T09:12:14.231Z,6.69
2018-11-29T09:14:26.406Z,6.76
2018-11-29T09:16:38.625Z,6.91
2018-11-29T09:18:50.808Z,7.09
2018-11-29T09:21:03.041Z,7.23
2018-11-29T09:23:15.204Z,7.32
2018-11-29T09:25:27.453Z,7.32
2018-11-29T09:27:39.638Z,7.31
2018-11-29T09:29:51.821Z,7.34
2018-11-29T09:32:05.697Z,7.48
2018-11-29T09:34:17.808Z,7.58
2018-11-29T09:36:30.021Z,7.73
2018-11-29T09:38:42.190Z,7.88
2018-11-29T09:40:54.423Z,8.06
2018-11-29T09:43:06.597Z,8.16
2018-11-29T09:45:19.773Z,8.22
2018-11-29T09:47:31.965Z,8.25
2018-11-29T09:49:44.153Z,8.35
2018-11-29T09:51:56.362Z,8.47
2018-11-29T09:54:08.635Z,8.59
2018-11-29T09:56:20.809Z,8.68
2018-11-29T09:58:33.032Z,8.67
2018-11-29T10:00:45.229Z,8.70
2018-11-29T10:03:06.901Z,8.74
2018-11-29T10:05:19.087Z,8.71
2018-11-29T10:07:31.291Z,8.78
2018-11-29T10:09:43.526Z,8.91
2018-11-29T10:11:55.760Z,9.01
2018-11-29T10:14:07.967Z,9.05
2018-11-29T10:16:20.137Z,9.18
2018-11-29T10:18:32.347Z,9.22
2018-11-29T10:20:44.573Z,9.26
2018-11-29T10:22:56.749Z,9.27
2018-11-29T10:25:10.337Z,9.22
2018-11-29T10:27:22.548Z,9.21
2018-11-29T10:29:34.758Z,9.19
2018-11-29T10:31:46.904Z,9.10
2018-11-29T10:33:59.111Z,9.09
2018-11-29T10:36:11.280Z,9.01
2018-11-29T10:38:23.494Z,8.96
2018-11-29T10:40:35.682Z,8.94
2018-11-29T10:42:47.873Z,8.83
2018-11-29T10:45:00.066Z,8.82
2018-11-29T10:47:12.278Z,8.79
2018-11-29T10:49:24.453Z,8.69
2018-11-29T10:51:36.632Z,8.65
2018-11-29T10:53:48.880Z,8.61
2018-11-29T10:56:01.248Z,8.62
2018-11-29T10:58:13.474Z,8.62
2018-11-29T11:00:31.390Z,8.59
2018-11-29T11:02:49.172Z,8.58
2018-11-29T11:05:01.352Z,8.57
2018-11-29T11:07:13.577Z,8.55
2018-11-29T11:09:25.742Z,8.52
2018-11-29T11:11:37.920Z,8.54
2018-11-29T11:13:50.162Z,8.52
2018-11-29T11:16:02.365Z,8.55
2018-11-29T11:18:15.397Z,8.60
2018-11-29T11:20:27.578Z,8.58
2018-11-29T11:22:39.819Z,8.49
2018-11-29T11:24:52.021Z,8.52
2018-11-29T11:27:04.248Z,8.62
2018-11-29T11:29:16.397Z,8.69
2018-11-29T11:31:31.179Z,8.71
2018-11-29T11:33:40.833Z,8.75
2018-11-29T11:35:52.997Z,8.79
2018-11-29T11:38:05.315Z,8.82
2018-11-29T11:40:17.570Z,8.85
2018-11-29T11:42:29.744Z,8.85
2018-11-29T11:44:41.932Z,8.87
2018-11-29T11:46:54.136Z,8.92
2018-11-29T11:49:06.303Z,8.94
2018-11-29T11:51:18.483Z,9.02
2018-11-29T11:53:30.663Z,9.04
2018-11-29T11:55:42.862Z,9.06
2018-11-29T11:57:55.037Z,9.08
2018-11-29T12:00:12.321Z,9.12
2018-11-29T12:02:27.309Z,9.16
2018-11-29T12:04:36.738Z,9.25
2018-11-29T12:06:48.915Z,9.31
2018-11-29T12:09:01.117Z,9.30
2018-11-29T12:11:13.384Z,9.32
2018-11-29T12:13:25.903Z,9.31
2018-11-29T12:15:38.172Z,9.33
2018-11-29T12:17:50.361Z,9.29
2018-11-29T12:20:02.604Z,9.32
2018-11-29T12:22:14.795Z,9.28
2018-11-29T12:24:27.044Z,9.32
2018-11-29T12:26:39.259Z,9.37
2018-11-29T12:28:51.433Z,9.39
2018-11-29T12:31:03.628Z,9.39
2018-11-29T12:33:16.785Z,9.35
2018-11-29T12:35:29.005Z,9.45
2018-11-29T12:37:41.176Z,9.45
2018-11-29T12:39:53.342Z,9.45
2018-11-29T12:42:05.554Z,9.42
2018-11-29T12:44:17.768Z,9.30
2018-11-29T12:46:29.980Z,9.28
2018-11-29T12:48:42.157Z,9.25
2018-11-29T12:50:54.392Z,9.33
2018-11-29T12:53:07.129Z,9.36
2018-11-29T12:55:20.434Z,9.26
2018-11-29T12:57:32.644Z,9.25
2018-11-29T12:59:44.837Z,9.22
2018-11-29T13:01:57.048Z,9.22
2018-11-29T13:04:09.248Z,9.20
2018-11-29T13:06:21.489Z,9.20
2018-11-29T13:08:33.708Z,9.24
2018-11-29T13:10:45.883Z,9.24
2018-11-29T13:12:58.102Z,9.19
2018-11-29T13:15:11.854Z,9.25
2018-11-29T13:17:24.005Z,9.64
2018-11-29T13:19:37.085Z,9.81
2018-11-29T13:21:49.321Z,9.79
2018-11-29T13:24:01.588Z,9.68
2018-11-29T13:26:13.786Z,9.48
2018-11-29T13:28:26.037Z,9.43
2018-11-29T13:30:38.242Z,9.35
2018-11-29T13:32:52.784Z,9.32
2018-11-29T13:35:12.136Z,9.31
2018-11-29T13:37:25.305Z,9.19
2018-11-29T13:39:37.463Z,9.13
2018-11-29T13:41:49.658Z,9.15
2018-11-29T13:44:01.854Z,9.11
2018-11-29T13:46:14.088Z,9.11
2018-11-29T13:48:26.297Z,9.12
2018-11-29T13:50:39.364Z,9.05
2018-11-29T13:52:51.472Z,9.08
2018-11-29T13:55:04.489Z,9.13
2018-11-29T13:57:16.678Z,9.06
2018-11-29T13:59:28.880Z,9.07
2018-11-29T14:01:41.057Z,9.05
2018-11-29T14:03:53.217Z,9.05
2018-11-29T14:06:05.924Z,9.02
2018-11-29T14:08:18.105Z,9.02
2018-11-29T14:10:30.381Z,8.96
2018-11-29T14:12:43.152Z,8.95
2018-11-29T14:14:55.408Z,8.96
2018-11-29T14:17:07.584Z,8.88
2018-11-29T14:19:20.092Z,8.84
2018-11-29T14:21:32.285Z,8.80
2018-11-29T14:23:44.492Z,8.67
2018-11-29T14:25:56.694Z,8.65
2018-11-29T14:28:09.313Z,8.62
2018-11-29T14:30:24.655Z,8.57
2018-11-29T14:32:36.851Z,8.45
2018-11-29T14:34:51.698Z,8.37
2018-11-29T14:37:01.210Z,8.41
2018-11-29T14:39:13.401Z,8.34
2018-11-29T14:41:25.664Z,8.33
2018-11-29T14:43:37.920Z,8.38
2018-11-29T14:45:50.129Z,8.33
2018-11-29T14:48:02.318Z,8.25
2018-11-29T14:50:16.381Z,8.19
2018-11-29T14:52:28.578Z,8.15
2018-11-29T14:54:40.824Z,8.16
2018-11-29T14:56:53.068Z,8.13
2018-11-29T14:59:05.374Z,8.08
2018-11-29T15:01:20.243Z,8.08
2018-11-29T15:03:32.459Z,8.05
2018-11-29T15:05:45.181Z,7.98
2018-11-29T15:07:57.459Z,8.00
2018-11-29T15:10:09.881Z,7.94
2018-11-29T15:12:22.104Z,7.90
2018-11-29T15:14:34.270Z,7.89
2018-11-29T15:16:46.496Z,7.90
2018-11-29T15:18:58.726Z,7.88
2018-11-29T15:21:10.963Z,7.89
2018-11-29T15:23:23.198Z,7.92
2018-11-29T15:25:35.404Z,7.94
2018-11-29T15:27:47.656Z,7.99
2018-11-29T15:29:59.840Z,7.97
2018-11-29T15:32:12.041Z,7.82
2018-11-29T15:34:24.277Z,7.76
2018-11-29T15:36:36.521Z,7.72
2018-11-29T15:38:48.718Z,7.71
2018-11-29T15:41:00.915Z,7.68
2018-11-29T15:43:13.134Z,7.75
2018-11-29T15:45:26.131Z,7.76
2018-11-29T15:47:38.353Z,7.71
2018-11-29T15:49:50.588Z,7.67
2018-11-29T15:52:02.909Z,7.66
2018-11-29T15:54:15.145Z,7.64
2018-11-29T15:56:27.408Z,7.60
2018-11-29T15:58:39.705Z,7.61
2018-11-29T16:00:51.901Z,7.65
2018-11-29T16:03:06.501Z,7.66
2018-11-29T16:05:18.769Z,7.67
2018-11-29T16:07:30.944Z,7.62
2018-11-29T16:09:43.132Z,7.66
2018-11-29T16:11:56.969Z,7.73
2018-11-29T16:14:09.178Z,7.78
2018-11-29T16:16:21.393Z,7.75
2018-11-29T16:18:33.600Z,7.71
2018-11-29T16:20:45.902Z,7.70
2018-11-29T16:22:58.204Z,7.75
2018-11-29T16:25:10.945Z,7.78
2018-11-29T16:27:23.195Z,7.80
2018-11-29T16:29:35.504Z,7.75
2018-11-29T16:31:47.757Z,7.80
2018-11-29T16:34:00.026Z,7.78
2018-11-29T16:36:12.270Z,7.79
2018-11-29T16:38:24.520Z,7.79
2018-11-29T16:40:36.764Z,7.77
2018-11-29T16:42:49.026Z,7.68
2018-11-29T16:45:01.334Z,7.70
2018-11-29T16:47:13.605Z,7.73
2018-11-29T16:49:25.885Z,7.73
2018-11-29T16:51:38.094Z,7.67
2018-11-29T16:53:50.286Z,7.66
2018-11-29T16:56:02.546Z,7.62
2018-11-29T16:58:16.863Z,7.64
2018-11-29T17:00:29.148Z,7.63
2018-11-29T17:02:41.457Z,7.48
2018-11-29T17:04:53.716Z,7.39
2018-11-29T17:07:06.261Z,7.38
2018-11-29T17:09:18.502Z,7.41
2018-11-29T17:11:30.720Z,7.42
2018-11-29T17:13:42.945Z,7.47
2018-11-29T17:15:55.170Z,7.33
2018-11-29T17:18:07.396Z,7.32
2018-11-29T17:20:20.052Z,7.33
2018-11-29T17:22:32.279Z,7.25
2018-11-29T17:24:44.445Z,7.30
2018-11-29T17:26:56.621Z,7.33
2018-11-29T17:29:08.834Z,7.33
2018-11-29T17:31:21.044Z,7.28
2018-11-29T17:33:33.253Z,7.20
2018-11-29T17:35:45.480Z,7.19
2018-11-29T17:37:58.714Z,7.16
2018-11-29T17:40:15.114Z,7.23
2018-11-29T17:42:27.304Z,7.40
2018-11-29T17:44:39.529Z,7.38
2018-11-29T17:46:51.851Z,7.31
2018-11-29T17:49:04.332Z,7.23
2018-11-29T17:51:16.609Z,7.16
2018-11-29T17:53:28.856Z,7.17
2018-11-29T17:55:41.209Z,7.17
2018-11-29T17:57:53.414Z,7.21
2018-11-29T18:00:10.905Z,7.09
2018-11-29T18:02:23.134Z,7.03
2018-11-29T18:04:35.378Z,7.06
2018-11-29T18:06:47.694Z,7.07
2018-11-29T18:08:59.963Z,7.02
2018-11-29T18:11:12.220Z,6.92
2018-11-29T18:13:26.631Z,6.95
2018-11-29T18:15:38.842Z,6.91
2018-11-29T18:17:51.117Z,6.76
2018-11-29T18:20:04.326Z,6.76
2018-11-29T18:22:16.540Z,6.75
2018-11-29T18:24:28.769Z,6.65
2018-11-29T18:26:41.046Z,6.65
2018-11-29T18:28:53.310Z,6.68
2018-11-29T18:31:05.578Z,6.68
2018-11-29T18:33:17.837Z,6.67
2018-11-29T18:35:30.098Z,6.59
2018-11-29T18:37:42.587Z,6.57
2018-11-29T18:39:54.761Z,6.52
2018-11-29T18:42:07.031Z,6.46
2018-11-29T18:44:19.224Z,6.48
2018-11-29T18:46:31.437Z,6.44
2018-11-29T18:48:43.767Z,6.43
2018-11-29T18:50:55.980Z,6.39
2018-11-29T18:53:08.287Z,6.38
2018-11-29T18:55:21.796Z,6.34
2018-11-29T18:57:34.024Z,6.30
2018-11-29T18:59:46.336Z,6.35
2018-11-29T19:01:58.615Z,6.38
2018-11-29T19:04:10.817Z,6.37
2018-11-29T19:06:23.018Z,6.33
2018-11-29T19:08:35.261Z,6.38
2018-11-29T19:10:47.549Z,6.29
2018-11-29T19:13:03.291Z,6.29
2018-11-29T19:15:15.545Z,6.29
2018-11-29T19:17:27.802Z,6.21
2018-11-29T19:19:40.068Z,6.24
2018-11-29T19:21:52.265Z,6.16
2018-11-29T19:24:05.137Z,6.14
2018-11-29T19:26:17.421Z,6.18
2018-11-29T19:28:29.602Z,6.19
2018-11-29T19:30:41.913Z,6.10
2018-11-29T19:32:57.636Z,6.10
2018-11-29T19:35:10.638Z,6.07
2018-11-29T19:37:22.912Z,5.95
2018-11-29T19:39:35.258Z,5.87
2018-11-29T19:41:47.509Z,5.81
2018-11-29T19:43:59.837Z,5.83
2018-11-29T19:46:12.083Z,5.84
2018-11-29T19:48:24.323Z,5.85
2018-11-29T19:50:36.593Z,5.84
2018-11-29T19:52:50.397Z,5.81
2018-11-29T19:55:02.612Z,5.71
2018-11-29T19:57:14.979Z,5.72
2018-11-29T19:59:27.228Z,5.72
2018-11-29T20:01:39.535Z,5.64
2018-11-29T20:03:51.896Z,5.64
2018-11-29T20:06:04.639Z,5.61
2018-11-29T20:08:16.883Z,5.61
2018-11-29T20:10:29.116Z,5.67
2018-11-29T20:12:41.374Z,5.68
2018-11-29T20:14:53.652Z,5.58
2018-11-29T20:17:05.925Z,5.59
2018-11-29T20:19:18.208Z,5.52
2018-11-29T20:21:30.509Z,5.55
2018-11-29T20:23:42.734Z,5.55
2018-11-29T20:25:55.017Z,5.56
2018-11-29T20:28:07.373Z,5.55
2018-11-29T20:30:20.606Z,5.60
2018-11-29T20:32:32.890Z,5.52
2018-11-29T20:34:45.179Z,5.47
2018-11-29T20:36:57.378Z,5.47
2018-11-29T20:39:09.959Z,5.49
2018-11-29T20:41:22.170Z,5.43
2018-11-29T20:43:34.501Z,5.38
2018-11-29T20:45:49.290Z,5.42
2018-11-29T20:48:04.643Z,5.40
2018-11-29T20:50:18.507Z,5.41
2018-11-29T20:52:30.788Z,5.40
2018-11-29T20:54:43.025Z,5.41
2018-11-29T20:56:55.318Z,5.36
2018-11-29T20:59:07.592Z,5.31
2018-11-29T21:01:19.829Z,5.31
2018-11-29T21:03:32.873Z,5.32
2018-11-29T21:05:44.389Z,5.30
2018-11-29T21:07:58.170Z,5.29
2018-11-29T21:10:13.207Z,5.28
2018-11-29T21:12:25.418Z,5.29
2018-11-29T21:14:37.667Z,5.27
2018-11-29T21:16:49.913Z,5.28
2018-11-29T21:19:02.180Z,5.27
2018-11-29T21:21:14.451Z,5.28
2018-11-29T21:23:26.690Z,5.20
2018-11-29T21:25:38.913Z,5.16
2018-11-29T21:27:51.137Z,5.13
2018-11-29T21:30:05.003Z,5.01
2018-11-29T21:32:17.212Z,5.04
2018-11-29T21:34:29.413Z,5.13
2018-11-29T21:36:41.754Z,5.00
2018-11-29T21:38:53.966Z,4.93
2018-11-29T21:41:06.244Z,4.89
2018-11-29T21:43:18.467Z,4.95
2018-11-29T21:45:30.704Z,4.97
2018-11-29T21:47:42.933Z,4.92
2018-11-29T21:49:55.135Z,4.86
2018-11-29T21:52:07.364Z,4.83
2018-11-29T21:54:19.592Z,4.77
2018-11-29T21:56:31.836Z,4.78
2018-11-29T21:58:44.044Z,4.77
2018-11-29T22:00:56.461Z,4.76
2018-11-29T22:03:08.680Z,4.78
2018-11-29T22:05:20.962Z,4.70
2018-11-29T22:07:33.189Z,4.72
2018-11-29T22:09:45.393Z,4.73
2018-11-29T22:11:57.656Z,4.71
2018-11-29T22:14:09.822Z,4.68
2018-11-29T22:16:22.149Z,4.63
2018-11-29T22:18:34.404Z,4.66
2018-11-29T22:20:47.712Z,4.67
2018-11-29T22:22:59.936Z,4.55
2018-11-29T22:25:12.224Z,4.50
2018-11-29T22:27:24.499Z,4.43
2018-11-29T22:29:36.729Z,4.43
2018-11-29T22:31:48.985Z,4.37
2018-11-29T22:34:01.175Z,4.37
2018-11-29T22:36:14.260Z,4.39
2018-11-29T22:38:25.596Z,4.30
2018-11-29T22:40:37.816Z,4.22
2018-11-29T22:42:50.104Z,4.16
2018-11-29T22:45:02.344Z,4.19
2018-11-29T22:47:14.553Z,4.27
2018-11-29T22:49:26.773Z,4.15
2018-11-29T22:51:39.013Z,4.11
2018-11-29T22:53:51.217Z,4.19
2018-11-29T22:56:03.494Z,4.21
2018-11-29T22:58:15.688Z,4.26
2018-11-29T23:00:33.687Z,4.32
2018-11-29T23:02:46.786Z,4.37
2018-11-29T23:04:59.182Z,4.36
2018-11-29T23:07:11.297Z,4.37
2018-11-29T23:09:23.528Z,4.43
2018-11-29T23:11:35.972Z,4.46
2018-11-29T23:13:49.905Z,4.55
2018-11-29T23:16:02.189Z,4.63
2018-11-29T23:18:14.382Z,4.72
2018-11-29T23:20:26.705Z,4.81
2018-11-29T23:22:39.494Z,4.86
2018-11-29T23:24:51.706Z,4.87
2018-11-29T23:27:03.919Z,4.84
2018-11-29T23:29:16.093Z,4.86
2018-11-29T23:31:28.312Z,4.79
2018-11-29T23:33:40.509Z,4.79
2018-11-29T23:35:52.685Z,4.83
2018-11-29T23:38:05.052Z,4.84
2018-11-29T23:40:17.538Z,4.79
2018-11-29T23:42:29.706Z,4.74
2018-11-29T23:44:41.855Z,4.77
2018-11-29T23:46:54.039Z,4.76
2018-11-29T23:49:06.357Z,4.74
2018-11-29T23:51:18.571Z,4.77
2018-11-29T23:53:30.823Z,4.86
2018-11-29T23:55:43.031Z,4.85
2018-11-29T23:57:55.281Z,4.80
